Time;durP1;ratioP1;P1;durP2;ratioP2;P2;SDS_P1;SDS_P2;PMS_P1;PMS_P2;Temp;Humidity;BMP_temperature;BMP_pressure;BME280_temperature;BME280_humidity;BME280_pressure;Samples;Min_cycle;Max_cycle;Signal;HPM_P1;HPM_P2
2022/03/26 00:01:05;;;;;;;21.52;12.35;;;8.80;36.10;;;;;;5089910;28;20080;-73
2022/03/26 00:03:51;;;;;;;22.23;12.15;;;8.80;36.10;;;;;;5090119;28;20052;-75
2022/03/26 00:06:32;;;;;;;22.38;12.48;;;8.70;36.30;;;;;;5089329;28;20036;-73
2022/03/26 00:09:22;;;;;;;21.30;12.15;;;8.70;36.50;;;;;;5089816;28;20039;-75
2022/03/26 00:12:15;;;;;;;26.58;13.63;;;8.60;36.80;;;;;;5082869;28;20040;-75
2022/03/26 00:14:49;;;;;;;24.38;12.18;;;8.60;36.70;;;;;;5086295;28;20075;-76
2022/03/26 00:17:19;;;;;;;26.90;14.15;;;8.50;36.40;;;;;;5090564;28;20099;-76
2022/03/26 00:19:48;;;;;;;29.00;16.02;;;8.60;36.70;;;;;;5087538;28;20085;-76
2022/03/26 00:22:17;;;;;;;30.67;17.02;;;8.60;36.70;;;;;;5089490;28;20075;-78
2022/03/26 00:24:49;;;;;;;26.40;14.57;;;8.60;36.80;;;;;;5069123;28;20039;-76
2022/03/26 00:27:18;;;;;;;24.92;13.55;;;8.50;36.30;;;;;;5089423;28;20036;-78
2022/03/26 00:30:08;;;;;;;29.75;15.70;;;8.50;36.60;;;;;;5089661;28;20166;-75
2022/03/26 00:32:43;;;;;;;29.63;15.05;;;8.50;36.60;;;;;;5091005;28;20097;-73
2022/03/26 00:35:15;;;;;;;23.52;12.95;;;8.60;36.80;;;;;;5090282;28;20028;-75
2022/03/26 00:38:04;;;;;;;23.98;12.05;;;8.50;36.40;;;;;;5089937;28;20042;-75
2022/03/26 00:40:42;;;;;;;21.08;11.13;;;8.50;37.10;;;;;;5083716;28;20093;-73
2022/03/26 00:43:27;;;;;;;23.55;12.88;;;8.50;36.90;;;;;;5089501;28;20050;-74
2022/03/26 00:45:54;;;;;;;22.00;10.75;;;8.50;37.10;;;;;;5071015;28;20051;-78
2022/03/26 00:48:24;;;;;;;18.48;8.98;;;8.40;37.30;;;;;;5088347;28;20609;-75
2022/03/26 00:50:52;;;;;;;20.25;9.77;;;8.40;37.30;;;;;;5071948;28;20276;-75
2022/03/26 00:53:44;;;;;;;17.67;7.90;;;8.40;37.40;;;;;;5075318;28;20048;-73
2022/03/26 00:56:12;;;;;;;19.80;8.82;;;8.30;37.60;;;;;;5088751;28;20028;-73
2022/03/26 00:58:41;;;;;;;13.80;7.50;;;8.30;37.90;;;;;;5089325;28;20378;-73
2022/03/26 01:01:23;;;;;;;17.88;7.97;;;8.20;37.80;;;;;;5089352;28;20032;-77
2022/03/26 01:03:52;;;;;;;15.45;7.95;;;8.20;37.90;;;;;;5090453;28;20039;-78
2022/03/26 01:06:20;;;;;;;17.42;8.13;;;8.20;37.80;;;;;;5088486;28;20036;-76
2022/03/26 01:08:49;;;;;;;17.98;9.50;;;8.20;37.90;;;;;;5106219;28;20060;-78
2022/03/26 01:11:20;;;;;;;16.42;8.10;;;8.20;37.80;;;;;;5089763;28;20028;-76
2022/03/26 01:13:56;;;;;;;16.08;8.52;;;8.20;37.90;;;;;;5080275;28;20036;-78
2022/03/26 01:16:26;;;;;;;20.00;8.85;;;8.10;37.80;;;;;;5068832;28;20036;-75
2022/03/26 01:19:03;;;;;;;21.70;9.45;;;8.10;38.00;;;;;;5068778;28;20028;-76
2022/03/26 01:21:32;;;;;;;21.80;10.55;;;8.10;38.30;;;;;;5068378;28;20040;-78
2022/03/26 01:24:06;;;;;;;17.13;8.63;;;8.10;38.20;;;;;;5076246;28;20094;-76
2022/03/26 01:26:48;;;;;;;;;;;;;;;;;;;;;
2022/03/26 01:29:15;;;;;;;20.70;8.93;;;7.90;38.30;;;;;;5089250;28;20032;-73
2022/03/26 01:31:55;;;;;;;19.10;9.13;;;7.80;38.40;;;;;;5089567;28;20036;-76
2022/03/26 01:34:24;;;;;;;23.10;10.98;;;7.70;38.30;;;;;;5089339;28;20446;-75
2022/03/26 01:36:53;;;;;;;17.23;9.18;;;7.70;38.50;;;;;;5089467;28;20492;-75
2022/03/26 01:39:22;;;;;;;19.75;9.80;;;7.70;38.70;;;;;;5089423;28;20089;-73
2022/03/26 01:41:48;;;;;;;15.38;8.40;;;7.60;38.90;;;;;;5088307;28;20392;-75
2022/03/26 01:44:17;;;;;;;18.05;8.65;;;7.50;38.90;;;;;;5071853;28;20040;-73
2022/03/26 01:47:03;;;;;;;19.10;9.07;;;7.40;39.00;;;;;;5089347;28;20043;-78
2022/03/26 01:50:08;;;;;;;20.58;9.45;;;7.40;39.20;;;;;;5089083;28;20051;-77
2022/03/26 01:53:19;;;;;;;17.98;8.93;;;7.30;38.70;;;;;;5088537;28;20036;-73
2022/03/26 01:56:09;;;;;;;17.77;8.88;;;7.30;38.80;;;;;;5088368;28;20036;-78
2022/03/26 01:59:04;;;;;;;19.77;8.60;;;7.30;39.30;;;;;;5071820;28;20117;-78
2022/03/26 02:01:34;;;;;;;18.27;10.10;;;7.20;39.20;;;;;;5049881;28;20068;-78
2022/03/26 02:04:18;;;;;;;16.05;8.38;;;7.20;39.40;;;;;;5035493;28;20041;-76
2022/03/26 02:06:54;;;;;;;18.98;9.35;;;7.10;39.20;;;;;;5070483;28;20060;-75
2022/03/26 02:09:35;;;;;;;;;;;;;;;;;;;;;
2022/03/26 02:12:22;;;;;;;15.18;7.80;;;7.00;39.60;;;;;;5093021;28;20373;-73
2022/03/26 02:14:49;;;;;;;16.27;7.75;;;7.00;40.00;;;;;;5088091;28;20044;-75
2022/03/26 02:17:17;;;;;;;15.13;7.00;;;7.00;40.10;;;;;;5088326;28;20036;-73
2022/03/26 02:20:15;;;;;;;14.60;7.75;;;6.90;40.30;;;;;;5071642;28;20027;-73
2022/03/26 02:22:49;;;;;;;13.80;6.55;;;6.90;40.50;;;;;;5073042;28;20063;-73
2022/03/26 02:25:19;;;;;;;12.10;6.80;;;6.80;40.10;;;;;;5076301;28;20037;-78
2022/03/26 02:31:00;;;;;;;17.02;8.60;;;6.70;40.10;;;;;;5071332;28;20043;-75
2022/03/26 02:33:26;;;;;;;17.73;7.60;;;6.70;40.60;;;;;;5055112;28;20036;-78
2022/03/26 02:35:52;;;;;;;14.50;7.85;;;6.70;40.40;;;;;;5071079;28;20068;-78
2022/03/26 02:38:18;;;;;;;13.95;7.53;;;6.60;41.50;;;;;;5072737;28;20040;-76
2022/03/26 02:41:04;;;;;;;19.35;7.53;;;6.60;40.90;;;;;;5069069;28;20044;-76
2022/03/26 02:43:30;;;;;;;15.23;7.20;;;6.60;41.20;;;;;;5091765;28;20085;-75
2022/03/26 02:45:57;;;;;;;17.08;7.63;;;6.60;41.10;;;;;;5093004;28;20089;-73
2022/03/26 02:48:23;;;;;;;14.95;6.75;;;6.50;41.10;;;;;;5091433;28;20039;-72
2022/03/26 02:50:50;;;;;;;;;;;6.40;41.20;;;;;;5091447;28;20139;-75
2022/03/26 02:53:16;;;;;;;15.88;6.38;;;6.40;40.50;;;;;;5091439;28;19927;-75
2022/03/26 02:55:43;;;;;;;15.48;6.47;;;6.40;40.90;;;;;;5092572;28;20028;-75
2022/03/26 02:58:10;;;;;;;14.68;5.93;;;6.40;41.10;;;;;;5092151;28;20042;-73
2022/03/26 03:00:37;;;;;;;12.35;6.75;;;6.30;40.70;;;;;;5090706;28;20032;-75
2022/03/26 03:03:06;;;;;;;21.65;9.13;;;6.30;41.20;;;;;;5092457;28;20040;-72
2022/03/26 03:05:33;;;;;;;15.02;8.57;;;6.20;41.20;;;;;;5073732;28;20042;-75
2022/03/26 03:08:01;;;;;;;18.15;8.80;;;6.20;41.20;;;;;;5091436;28;20066;-75
2022/03/26 03:10:28;;;;;;;23.13;8.35;;;6.10;41.30;;;;;;5091112;28;20430;-75
2022/03/26 03:12:54;;;;;;;16.55;8.65;;;6.20;41.50;;;;;;5088858;28;20085;-73
2022/03/26 03:15:21;;;;;;;18.25;7.47;;;6.20;41.40;;;;;;5070245;28;20037;-75
2022/03/26 03:17:48;;;;;;;;;;;6.10;41.80;;;;;;5071369;28;20050;-75
2022/03/26 03:20:15;;;;;;;13.02;6.30;;;6.10;41.10;;;;;;5093128;28;19916;-72
2022/03/26 03:22:43;;;;;;;12.35;6.68;;;6.00;41.50;;;;;;5090673;28;20135;-73
2022/03/26 03:25:11;;;;;;;14.07;6.60;;;6.00;41.90;;;;;;5090892;28;20119;-75
2022/03/26 03:27:40;;;;;;;14.80;6.50;;;5.90;42.00;;;;;;5090779;28;20550;-74
2022/03/26 03:30:07;;;;;;;12.90;5.65;;;5.90;42.30;;;;;;5090310;28;20070;-75
2022/03/26 03:32:33;;;;;;;13.90;6.25;;;5.90;42.20;;;;;;5073688;28;20032;-73
2022/03/26 03:34:59;;;;;;;12.38;6.00;;;5.90;42.40;;;;;;5091936;28;20088;-75
2022/03/26 03:37:26;;;;;;;15.90;5.97;;;5.70;42.60;;;;;;5089842;28;20024;-73
2022/03/26 03:39:52;;;;;;;16.08;6.63;;;5.60;43.00;;;;;;5083228;28;20328;-73
2022/03/26 03:42:18;;;;;;;;;;;5.40;43.10;;;;;;5071839;28;20037;-75
2022/03/26 03:44:44;;;;;;;18.00;6.07;;;5.30;42.50;;;;;;5071622;28;20331;-73
2022/03/26 03:47:10;;;;;;;11.43;6.40;;;5.30;42.80;;;;;;5070933;28;20044;-75
2022/03/26 03:49:36;;;;;;;15.13;6.40;;;5.30;42.80;;;;;;5071298;28;20039;-74
2022/03/26 03:52:04;;;;;;;16.08;6.78;;;5.30;43.00;;;;;;5053690;28;20029;-75
2022/03/26 03:54:30;;;;;;;13.02;6.70;;;5.20;42.80;;;;;;5071588;28;20443;-73
2022/03/26 03:56:56;;;;;;;15.55;6.32;;;5.30;43.00;;;;;;5069673;28;20044;-78
2022/03/26 03:59:22;;;;;;;12.35;6.32;;;5.20;42.50;;;;;;5053105;28;20033;-77
2022/03/26 04:01:49;;;;;;;12.35;5.75;;;5.20;43.10;;;;;;5070869;28;20401;-78
2022/03/26 04:04:16;;;;;;;10.93;5.50;;;5.20;43.20;;;;;;5071826;28;20477;-75
2022/03/26 04:06:43;;;;;;;13.55;6.10;;;5.10;43.30;;;;;;5069106;28;20040;-77
2022/03/26 04:09:09;;;;;;;9.38;5.00;;;5.10;43.50;;;;;;5069956;28;20120;-76
2022/03/26 04:11:35;;;;;;;12.52;5.88;;;5.10;43.50;;;;;;5069009;28;20032;-75
2022/03/26 04:14:01;;;;;;;10.23;4.90;;;5.10;43.70;;;;;;5097862;28;20036;-76
2022/03/26 04:16:27;;;;;;;10.43;5.20;;;5.00;43.60;;;;;;5072269;28;20031;-75
2022/03/26 04:18:53;;;;;;;12.52;5.53;;;5.00;43.70;;;;;;5091450;28;20032;-75
2022/03/26 04:21:19;;;;;;;12.13;5.18;;;5.00;43.70;;;;;;5090513;28;20040;-78
2022/03/26 04:23:45;;;;;;;13.27;5.78;;;5.00;43.90;;;;;;5090147;28;20489;-78
2022/03/26 04:26:11;;;;;;;17.52;6.15;;;5.00;43.90;;;;;;5090570;28;20028;-78
2022/03/26 04:28:37;;;;;;;14.38;6.32;;;4.90;44.00;;;;;;5089547;28;20044;-77
2022/03/26 04:31:04;;;;;;;13.80;6.75;;;4.90;44.10;;;;;;5089707;28;20028;-77
2022/03/26 04:33:30;;;;;;;11.95;6.30;;;5.00;44.10;;;;;;5089836;28;20043;-75
2022/03/26 04:35:57;;;;;;;13.70;6.88;;;4.90;44.10;;;;;;5089024;28;20504;-77
2022/03/26 04:38:23;;;;;;;;;;;4.90;44.10;;;;;;5091554;28;20517;-78
2022/03/26 04:40:50;;;;;;;17.05;8.75;;;4.90;43.50;;;;;;5068573;28;19923;-78
2022/03/26 04:43:18;;;;;;;18.00;8.00;;;4.80;43.60;;;;;;5087000;28;20228;-78
2022/03/26 04:45:45;;;;;;;11.48;5.90;;;4.80;43.50;;;;;;5068945;28;20036;-75
2022/03/26 04:48:11;;;;;;;12.20;5.65;;;4.70;43.70;;;;;;5069037;28;20036;-77
2022/03/26 04:50:37;;;;;;;15.45;5.45;;;4.60;44.40;;;;;;5068331;28;20040;-75
2022/03/26 04:53:03;;;;;;;18.17;5.18;;;4.60;44.50;;;;;;5069218;28;20036;-75
2022/03/26 04:55:29;;;;;;;12.65;4.93;;;4.60;44.60;;;;;;5068846;28;20029;-75
2022/03/26 04:57:55;;;;;;;;;;;4.50;44.90;;;;;;5070044;28;20037;-75
2022/03/26 05:00:22;;;;;;;14.90;5.25;;;4.40;44.50;;;;;;5068321;28;20300;-75
2022/03/26 05:02:49;;;;;;;10.93;5.15;;;4.40;44.60;;;;;;5069174;28;20485;-78
2022/03/26 05:05:15;;;;;;;12.75;5.32;;;4.40;44.70;;;;;;5068496;28;20047;-78
2022/03/26 05:07:48;;;;;;;9.95;4.90;;;4.40;44.80;;;;;;5085611;28;20036;-76
2022/03/26 05:10:33;;;;;;;17.52;7.45;;;4.40;44.80;;;;;;5070272;28;20453;-77
2022/03/26 05:12:59;;;;;;;17.02;7.80;;;4.50;45.20;;;;;;5071395;28;20044;-77
2022/03/26 05:15:29;;;;;;;;;;;4.40;44.30;;;;;;5089127;28;20044;-78
2022/03/26 05:17:59;;;;;;;15.10;7.55;;;4.40;44.10;;;;;;5072525;28;19920;-77
2022/03/26 05:20:25;;;;;;;14.10;6.57;;;4.50;44.60;;;;;;5071734;28;20406;-75
2022/03/26 05:22:53;;;;;;;17.63;7.07;;;4.50;44.70;;;;;;5088504;28;20032;-77
2022/03/26 05:25:20;;;;;;;21.08;6.75;;;4.50;44.90;;;;;;5088973;28;20030;-75
2022/03/26 05:28:05;;;;;;;15.50;6.72;;;4.60;45.10;;;;;;5089020;28;20397;-77
2022/03/26 05:30:32;;;;;;;15.60;6.55;;;4.70;45.00;;;;;;5071591;28;20047;-75
2022/03/26 05:32:59;;;;;;;12.73;6.18;;;4.70;44.80;;;;;;5088771;28;20033;-77
2022/03/26 05:35:25;;;;;;;15.27;6.70;;;4.70;44.60;;;;;;5073234;28;20040;-75
2022/03/26 05:37:51;;;;;;;14.73;6.88;;;4.80;44.70;;;;;;5094295;28;20032;-78
2022/03/26 05:40:20;;;;;;;22.17;6.75;;;4.80;44.70;;;;;;5093067;28;20158;-77
2022/03/26 05:42:48;;;;;;;14.77;6.40;;;4.90;44.70;;;;;;5092960;28;20056;-75
2022/03/26 05:45:15;;;;;;;15.15;6.97;;;4.80;44.70;;;;;;5092242;28;20067;-75
2022/03/26 05:47:41;;;;;;;32.00;10.43;;;4.90;44.80;;;;;;5092389;28;20036;-78
2022/03/26 05:50:11;;;;;;;32.30;8.75;;;5.00;44.90;;;;;;5075142;28;20031;-75
2022/03/26 05:52:38;;;;;;;24.10;8.13;;;5.00;45.30;;;;;;5075499;28;20133;-75
2022/03/26 05:55:05;;;;;;;16.67;7.35;;;5.00;44.90;;;;;;5093253;28;20020;-74
2022/03/26 05:57:31;;;;;;;17.77;7.55;;;5.00;45.70;;;;;;5092864;28;20515;-78
2022/03/26 05:59:57;;;;;;;22.83;8.55;;;5.10;46.00;;;;;;5092570;28;20487;-73
2022/03/26 06:02:23;;;;;;;18.50;7.85;;;5.10;46.10;;;;;;5092052;28;20039;-73
2022/03/26 06:04:50;;;;;;;15.35;7.95;;;5.10;46.00;;;;;;5093601;28;21187;-74
2022/03/26 06:07:16;;;;;;;20.80;8.73;;;5.30;45.80;;;;;;5094163;28;20059;-73
2022/03/26 06:09:42;;;;;;;21.08;8.02;;;5.40;45.80;;;;;;5092160;28;20042;-73
2022/03/26 06:12:08;;;;;;;22.25;8.65;;;5.50;45.90;;;;;;5093259;28;20360;-76
2022/03/26 06:14:34;;;;;;;17.58;9.18;;;5.50;45.40;;;;;;5092101;28;20034;-73
2022/03/26 06:17:01;;;;;;;24.73;9.77;;;5.60;46.00;;;;;;5091775;28;20420;-73
2022/03/26 06:19:27;;;;;;;21.90;9.90;;;5.70;45.90;;;;;;5092332;28;20035;-73
2022/03/26 06:21:53;;;;;;;;;;;5.80;46.00;;;;;;5075386;28;20035;-73
2022/03/26 06:24:20;;;;;;;32.55;12.23;;;5.90;44.80;;;;;;5074837;28;19926;-75
2022/03/26 06:26:48;;;;;;;27.45;13.32;;;6.00;45.60;;;;;;5091492;28;20036;-73
2022/03/26 06:29:16;;;;;;;67.53;34.50;;;6.10;45.20;;;;;;5075115;28;20036;-76
2022/03/26 06:31:43;;;;;;;39.90;19.92;;;6.20;45.70;;;;;;5074657;28;20071;-74
2022/03/26 06:34:09;;;;;;;46.25;23.50;;;6.30;45.80;;;;;;5093751;28;20582;-73
2022/03/26 06:36:36;;;;;;;42.80;21.92;;;6.40;46.60;;;;;;5091261;28;20083;-76
2022/03/26 06:39:05;;;;;;;38.50;21.92;;;6.50;46.60;;;;;;5091304;28;20040;-73
2022/03/26 06:41:31;;;;;;;50.10;26.67;;;6.50;46.50;;;;;;5054340;28;20032;-73
2022/03/26 06:43:57;;;;;;;39.80;23.90;;;6.70;46.80;;;;;;5087989;28;20036;-74
2022/03/26 06:46:23;;;;;;;36.45;20.17;;;6.80;46.50;;;;;;5070155;28;20032;-76
2022/03/26 06:48:49;;;;;;;30.95;17.90;;;6.90;46.70;;;;;;5071797;28;20037;-75
2022/03/26 06:51:15;;;;;;;37.83;21.17;;;7.00;46.80;;;;;;5054198;28;20452;-76
2022/03/26 06:53:41;;;;;;;34.20;20.40;;;7.20;46.70;;;;;;5054444;28;20037;-76
2022/03/26 06:56:08;;;;;;;42.15;21.98;;;7.30;46.60;;;;;;5072105;28;20079;-73
2022/03/26 06:58:35;;;;;;;40.55;22.65;;;7.40;46.50;;;;;;5072644;28;20419;-76
2022/03/26 07:01:02;;;;;;;39.35;23.75;;;7.50;46.40;;;;;;5071286;28;20046;-76
2022/03/26 07:03:29;;;;;;;40.70;22.50;;;7.60;45.70;;;;;;5070956;28;20090;-75
2022/03/26 07:05:55;;;;;;;40.50;21.35;;;7.80;46.10;;;;;;5082192;28;20039;-73
2022/03/26 07:08:21;;;;;;;41.92;21.90;;;8.00;46.00;;;;;;5091043;28;20454;-76
2022/03/26 07:10:47;;;;;;;44.35;22.65;;;8.10;45.70;;;;;;5091973;28;20432;-73
2022/03/26 07:13:14;;;;;;;42.08;21.08;;;8.30;45.60;;;;;;5092992;28;20028;-74
2022/03/26 07:15:41;;;;;;;38.80;21.08;;;8.40;44.40;;;;;;5090506;28;20272;-73
2022/03/26 07:18:08;;;;;;;48.03;24.27;;;8.60;44.50;;;;;;5091711;28;20040;-74
2022/03/26 07:20:35;;;;;;;47.33;24.83;;;8.80;44.50;;;;;;5089922;28;20031;-76
2022/03/26 07:23:01;;;;;;;49.65;23.77;;;9.00;44.20;;;;;;5090427;28;20051;-76
2022/03/26 07:25:29;;;;;;;48.95;22.75;;;9.20;44.10;;;;;;5091458;28;20032;-73
2022/03/26 07:27:56;;;;;;;34.83;19.75;;;9.40;43.90;;;;;;5074748;28;20556;-74
2022/03/26 07:30:22;;;;;;;32.42;19.10;;;9.50;43.40;;;;;;5090038;28;20036;-76
2022/03/26 07:32:48;;;;;;;59.42;24.05;;;9.70;43.30;;;;;;5090660;28;20512;-76
2022/03/26 07:35:14;;;;;;;45.90;21.65;;;9.90;42.90;;;;;;5089149;28;20036;-73
2022/03/26 07:37:41;;;;;;;71.95;31.58;;;10.10;42.70;;;;;;5090191;28;20028;-76
2022/03/26 07:40:07;;;;;;;59.15;28.85;;;10.40;42.60;;;;;;5081148;28;20031;-74
2022/03/26 07:42:34;;;;;;;37.90;20.00;;;10.90;42.30;;;;;;5069729;28;20127;-76
2022/03/26 07:45:00;;;;;;;;;;;11.70;41.40;;;;;;5070656;28;20044;-74
2022/03/26 07:47:26;;;;;;;60.78;26.02;;;12.60;41.50;;;;;;5095264;28;20379;-73
2022/03/26 07:49:52;;;;;;;38.88;18.63;;;13.20;40.20;;;;;;5090352;28;20357;-73
2022/03/26 07:52:18;;;;;;;36.58;19.38;;;14.00;39.00;;;;;;5090463;28;20040;-77
2022/03/26 07:54:44;;;;;;;34.95;19.55;;;14.80;38.20;;;;;;5092314;28;20036;-77
2022/03/26 07:57:10;;;;;;;33.15;18.77;;;15.50;37.00;;;;;;5092209;28;20032;-78
2022/03/26 07:59:36;;;;;;;28.02;15.40;;;16.30;36.50;;;;;;5092689;28;20036;-75
2022/03/26 08:02:03;;;;;;;34.95;16.70;;;17.00;34.80;;;;;;5092626;28;20032;-78
2022/03/26 08:04:29;;;;;;;22.65;13.75;;;17.70;33.00;;;;;;5092336;28;20047;-76
2022/03/26 08:06:55;;;;;;;26.58;15.68;;;18.50;32.30;;;;;;5035970;28;20048;-77
2022/03/26 08:09:21;;;;;;;;;;;19.10;31.20;;;;;;5089084;28;20523;-78
2022/03/26 08:11:47;;;;;;;27.00;15.23;;;19.90;33.20;;;;;;5069575;28;19921;-74
2022/03/26 08:14:14;;;;;;;26.38;13.23;;;20.40;29.20;;;;;;5089773;28;20032;-78
2022/03/26 08:16:40;;;;;;;26.95;15.30;;;21.20;28.60;;;;;;5091160;28;20047;-79
2022/03/26 08:19:07;;;;;;;24.23;14.02;;;21.70;27.50;;;;;;5091169;28;20093;-78
2022/03/26 08:21:35;;;;;;;30.95;15.88;;;22.40;26.10;;;;;;5089517;28;20044;-78
2022/03/26 08:24:20;;;;;;;25.27;13.90;;;22.90;25.50;;;;;;5090860;28;20411;-78
2022/03/26 08:26:46;;;;;;;25.58;14.25;;;23.60;24.90;;;;;;5089474;28;20036;-79
2022/03/26 08:29:13;;;;;;;23.60;14.55;;;24.40;23.80;;;;;;5089849;28;20133;-78
2022/03/26 08:31:39;;;;;;;29.30;17.83;;;25.00;23.00;;;;;;5091013;28;20381;-75
2022/03/26 08:34:05;;;;;;;;;;;25.60;21.80;;;;;;5073524;28;20044;-74
2022/03/26 08:36:31;;;;;;;27.48;15.63;;;26.00;23.80;;;;;;5089146;28;19923;-75
2022/03/26 08:38:57;;;;;;;24.15;15.50;;;26.50;21.30;;;;;;5089502;28;20523;-75
2022/03/26 08:41:24;;;;;;;28.05;15.65;;;27.30;20.30;;;;;;5069974;28;20503;-78
2022/03/26 08:43:51;;;;;;;23.45;14.77;;;27.70;19.50;;;;;;5052852;28;20436;-75
2022/03/26 08:46:19;;;;;;;23.85;14.50;;;28.10;18.90;;;;;;5052405;28;20024;-78
2022/03/26 08:48:47;;;;;;;27.73;16.02;;;28.70;17.60;;;;;;5069175;28;20386;-79
2022/03/26 08:51:13;;;;;;;26.10;15.55;;;29.10;16.90;;;;;;5068591;28;20040;-75
2022/03/26 08:53:40;;;;;;;24.45;15.43;;;29.70;16.20;;;;;;5052615;28;20081;-79
2022/03/26 08:56:07;;;;;;;27.60;15.20;;;30.40;16.20;;;;;;5068776;28;20025;-75
2022/03/26 08:58:34;;;;;;;23.95;15.65;;;30.70;15.20;;;;;;5053192;28;20031;-75
2022/03/26 09:01:01;;;;;;;29.10;16.08;;;31.20;15.00;;;;;;5085236;28;20041;-79
2022/03/26 09:03:28;;;;;;;24.42;14.90;;;31.70;14.10;;;;;;5069130;28;20043;-75
2022/03/26 09:05:55;;;;;;;22.52;13.40;;;32.30;14.20;;;;;;5068272;28;20525;-79
2022/03/26 09:08:22;;;;;;;21.83;14.25;;;32.70;13.20;;;;;;5069281;28;20044;-75
2022/03/26 09:10:48;;;;;;;31.27;15.40;;;33.30;13.20;;;;;;5068056;28;20020;-78
2022/03/26 09:13:15;;;;;;;23.27;14.05;;;33.70;12.20;;;;;;5070213;28;20036;-79
2022/03/26 09:15:41;;;;;;;21.02;13.13;;;34.30;12.20;;;;;;5088734;28;20048;-75
2022/03/26 09:18:08;;;;;;;19.10;12.25;;;34.60;11.20;;;;;;5072114;28;20048;-75
2022/03/26 09:20:36;;;;;;;21.67;13.18;;;35.00;11.30;;;;;;5088537;28;20032;-75
2022/03/26 09:23:02;;;;;;;23.98;11.40;;;35.30;10.90;;;;;;5089023;28;20405;-76
2022/03/26 09:25:29;;;;;;;24.75;11.05;;;35.70;10.60;;;;;;5090140;28;20037;-75
2022/03/26 09:27:56;;;;;;;18.33;11.52;;;36.30;10.20;;;;;;5090628;28;20421;-74
2022/03/26 09:30:22;;;;;;;17.73;9.90;;;36.90;9.40;;;;;;5088466;28;20525;-79
2022/03/26 09:32:48;;;;;;;12.25;7.85;;;37.30;9.10;;;;;;5090353;28;20040;-75
2022/03/26 09:35:15;;;;;;;15.73;9.50;;;37.50;8.60;;;;;;5088358;28;20035;-75
2022/03/26 09:37:43;;;;;;;17.65;8.90;;;37.80;8.10;;;;;;5072462;28;20074;-80
2022/03/26 09:40:10;;;;;;;12.93;8.60;;;38.30;8.00;;;;;;5088240;28;20493;-74
2022/03/26 09:42:38;;;;;;;14.52;7.18;;;38.50;7.80;;;;;;5089102;28;20039;-75
2022/03/26 09:45:06;;;;;;;11.77;8.55;;;39.00;7.80;;;;;;5088816;28;20405;-79
2022/03/26 09:47:34;;;;;;;15.02;8.50;;;39.60;7.10;;;;;;5088816;28;20453;-75
2022/03/26 09:50:03;;;;;;;13.13;8.20;;;39.70;6.80;;;;;;5088888;28;20033;-78
2022/03/26 09:52:29;;;;;;;18.10;9.77;;;40.10;7.00;;;;;;5088894;28;20481;-75
2022/03/26 09:55:15;;;;;;;25.10;9.90;;;40.70;6.80;;;;;;5087325;28;20032;-79
2022/03/26 09:57:41;;;;;;;11.95;7.65;;;40.80;6.80;;;;;;5088709;28;20046;-75
2022/03/26 10:00:09;;;;;;;18.73;15.85;;;41.50;7.20;;;;;;5088032;28;20075;-75
2022/03/26 10:02:36;;;;;;;18.25;9.40;;;41.50;5.60;;;;;;5087915;28;20078;-79
2022/03/26 10:05:04;;;;;;;14.65;8.55;;;41.80;6.00;;;;;;5088229;28;20043;-75
2022/03/26 10:07:31;;;;;;;17.80;8.38;;;42.10;5.30;;;;;;5090045;28;20030;-78
2022/03/26 10:09:57;;;;;;;13.98;7.75;;;42.30;5.40;;;;;;5068039;28;20032;-78
2022/03/26 10:12:26;;;;;;;10.82;7.07;;;42.80;4.60;;;;;;5067700;28;20037;-75
2022/03/26 10:15:11;;;;;;;13.77;7.57;;;43.30;5.40;;;;;;5079239;28;20378;-79
2022/03/26 10:17:38;;;;;;;16.80;8.02;;;43.40;5.40;;;;;;5067887;28;20044;-74
2022/03/26 10:20:22;;;;;;;10.55;6.93;;;43.30;5.30;;;;;;5069187;28;20029;-78
2022/03/26 10:22:49;;;;;;;11.75;7.70;;;43.80;4.70;;;;;;5071811;28;20109;-75
2022/03/26 10:25:36;;;;;;;13.88;7.78;;;44.50;3.80;;;;;;5071496;28;20029;-75
2022/03/26 10:28:02;;;;;;;9.40;6.45;;;44.50;4.30;;;;;;5073457;28;20114;-78
2022/03/26 10:33:38;;;;;;;12.35;5.88;;;45.20;4.80;;;;;;5087733;28;20611;-75
2022/03/26 10:36:04;;;;;;;8.98;4.45;;;45.50;4.20;;;;;;5091237;28;20048;-75
2022/03/26 10:38:51;;;;;;;12.75;6.43;;;45.70;3.40;;;;;;5074761;28;20381;-78
2022/03/26 10:41:21;;;;;;;13.55;5.93;;;46.20;4.00;;;;;;5073210;28;20040;-79
2022/03/26 10:43:47;;;;;;;16.17;5.90;;;46.80;3.80;;;;;;5087977;28;20039;-75
2022/03/26 10:46:23;;;;;;;10.05;6.82;;;47.20;3.80;;;;;;5089778;28;20400;-75
2022/03/26 10:49:02;;;;;;;10.32;6.22;;;47.30;3.50;;;;;;5084480;28;20040;-76
2022/03/26 10:51:36;;;;;;;11.82;6.90;;;47.30;3.40;;;;;;5090248;28;20128;-80
2022/03/26 10:54:28;;;;;;;10.68;7.30;;;47.30;3.10;;;;;;5091678;28;20051;-75
2022/03/26 10:56:54;;;;;;;11.27;7.88;;;47.10;3.20;;;;;;5092074;28;20473;-79
2022/03/26 10:59:22;;;;;;;10.32;7.25;;;47.10;3.30;;;;;;5091882;28;20440;-75
2022/03/26 11:01:48;;;;;;;13.60;8.07;;;47.60;3.00;;;;;;5091262;28;20094;-76
2022/03/26 11:04:15;;;;;;;13.25;8.40;;;48.30;3.20;;;;;;5108599;28;20024;-78
2022/03/26 11:06:42;;;;;;;12.85;8.40;;;48.60;2.90;;;;;;5091243;28;20461;-78
2022/03/26 11:09:09;;;;;;;11.10;7.15;;;48.80;2.70;;;;;;5074076;28;20044;-79
2022/03/26 11:11:36;;;;;;;12.38;6.93;;;49.00;3.10;;;;;;5090564;28;20028;-79
2022/03/26 11:14:30;;;;;;;11.52;7.63;;;49.50;3.00;;;;;;5092407;28;20060;-76
2022/03/26 11:17:52;;;;;;;10.15;7.35;;;49.40;3.00;;;;;;5091856;28;20025;-75
2022/03/26 11:20:55;;;;;;;14.30;8.15;;;49.60;3.20;;;;;;5091976;28;20047;-79
2022/03/26 11:24:00;;;;;;;13.10;7.80;;;49.80;3.10;;;;;;5092412;28;20051;-74
2022/03/26 11:26:32;;;;;;;17.10;8.33;;;49.80;2.90;;;;;;5090517;28;20036;-78
2022/03/26 11:29:16;;;;;;;15.73;7.10;;;49.80;3.10;;;;;;5092246;28;20440;-76
2022/03/26 11:32:01;;;;;;;18.02;6.95;;;50.30;3.40;;;;;;5092135;28;20611;-78
2022/03/26 11:34:34;;;;;;;10.80;7.15;;;50.40;3.20;;;;;;5107555;28;20044;-75
2022/03/26 11:37:56;;;;;;;9.55;6.82;;;50.50;2.90;;;;;;5090170;28;20039;-79
2022/03/26 11:40:43;;;;;;;18.08;7.60;;;50.80;2.80;;;;;;5091691;28;20500;-75
2022/03/26 11:43:47;;;;;;;10.07;7.28;;;50.70;2.50;;;;;;5092264;28;20435;-78
2022/03/26 11:52:24;;;;;;;10.35;6.70;;;50.10;2.60;;;;;;5090505;28;20070;-79
2022/03/26 11:55:28;;;;;;;9.27;6.25;;;50.50;2.40;;;;;;5077241;28;20421;-79
2022/03/26 11:58:32;;;;;;;10.00;7.20;;;51.00;2.80;;;;;;5070063;28;20047;-79
2022/03/26 12:01:17;;;;;;;13.60;7.75;;;51.60;2.60;;;;;;5069331;28;20090;-75
2022/03/26 12:03:44;;;;;;;10.65;7.20;;;51.20;3.10;;;;;;5085159;28;20444;-75
2022/03/26 12:06:37;;;;;;;12.45;7.78;;;50.10;2.20;;;;;;5090680;28;20070;-79
2022/03/26 12:09:03;;;;;;;18.02;7.80;;;50.10;2.40;;;;;;5073470;28;20037;-74
2022/03/26 12:12:10;;;;;;;11.82;8.07;;;50.30;1.90;;;;;;5085677;28;20393;-76
2022/03/26 12:15:14;;;;;;;11.88;7.10;;;50.40;2.30;;;;;;5083225;28;20028;-80
2022/03/26 12:18:18;;;;;;;11.63;8.70;;;49.90;2.50;;;;;;5106641;28;20040;-79
2022/03/26 12:20:47;;;;;;;13.10;9.10;;;49.50;2.60;;;;;;5089579;28;20036;-80
2022/03/26 12:23:34;;;;;;;10.45;7.47;;;48.90;2.70;;;;;;5089118;28;20539;-75
2022/03/26 12:26:21;;;;;;;11.18;7.82;;;48.50;2.90;;;;;;5089530;28;20028;-79
2022/03/26 12:28:49;;;;;;;10.95;8.15;;;49.30;2.90;;;;;;5090284;28;20039;-80
2022/03/26 12:31:17;;;;;;;10.40;8.75;;;50.10;2.70;;;;;;5089245;28;20420;-74
2022/03/26 12:34:04;;;;;;;14.13;9.32;;;50.60;2.00;;;;;;5089669;28;20044;-79
2022/03/26 12:36:35;;;;;;;12.20;9.25;;;51.00;2.20;;;;;;5090237;28;20345;-74
2022/03/26 12:39:03;;;;;;;11.50;9.40;;;51.00;2.20;;;;;;5072609;28;20042;-80
2022/03/26 12:41:31;;;;;;;15.07;10.20;;;51.00;2.00;;;;;;5089167;28;20025;-80
2022/03/26 12:43:59;;;;;;;11.05;8.82;;;50.90;2.00;;;;;;5088788;28;20035;-75
2022/03/26 12:46:47;;;;;;;12.60;9.27;;;50.70;1.80;;;;;;5072195;28;20024;-79
2022/03/26 12:49:36;;;;;;;13.55;8.57;;;49.80;2.30;;;;;;5089594;28;20039;-74
2022/03/26 12:52:03;;;;;;;13.52;8.80;;;50.80;2.30;;;;;;5088882;28;20029;-75
2022/03/26 12:54:30;;;;;;;16.50;10.52;;;50.30;2.10;;;;;;5089196;28;20064;-79
2022/03/26 12:56:56;;;;;;;14.75;9.88;;;48.80;2.10;;;;;;5088369;28;20500;-75
2022/03/26 12:59:22;;;;;;;12.45;9.27;;;49.10;2.30;;;;;;5089359;28;20036;-74
2022/03/26 13:01:57;;;;;;;12.50;10.10;;;49.60;2.60;;;;;;5072148;28;20032;-78
2022/03/26 13:04:23;;;;;;;13.52;10.07;;;49.70;2.10;;;;;;5073120;28;20020;-79
2022/03/26 13:06:55;;;;;;;11.52;9.10;;;50.40;2.10;;;;;;5071728;28;20524;-74
2022/03/26 13:09:21;;;;;;;12.30;8.63;;;51.10;2.00;;;;;;5089377;28;20036;-74
2022/03/26 13:11:51;;;;;;;13.68;9.35;;;51.50;2.10;;;;;;5071560;28;20033;-74
2022/03/26 13:14:19;;;;;;;13.70;9.57;;;51.90;1.70;;;;;;5087655;28;20150;-75
2022/03/26 13:16:51;;;;;;;21.75;10.38;;;51.60;1.80;;;;;;5072009;28;20036;-75
2022/03/26 13:19:17;;;;;;;12.10;10.10;;;51.50;2.40;;;;;;5090366;28;20060;-74
2022/03/26 13:21:48;;;;;;;12.85;10.02;;;51.50;2.00;;;;;;5071694;28;20040;-75